Time;durP1;ratioP1;P1;durP2;ratioP2;P2;SDS_P1;SDS_P2;PMS_P1;PMS_P2;Temp;Humidity;BMP_temperature;BMP_pressure;BME280_temperature;BME280_humidity;BME280_pressure;Samples;Min_cycle;Max_cycle;Signal;HPM_P1;HPM_P2
2023/01/07 00:01:21;;;;;;;;;;;;;;;11.20;57.41;99221.63;4334327;33;20036;-84
2023/01/07 00:03:47;;;;;;;;;;;;;;;11.26;57.32;99215.19;4335312;33;19971;-84
2023/01/07 00:06:13;;;;;;;;;;;;;;;11.25;57.37;99221.41;4334325;33;19980;-84
2023/01/07 00:08:39;;;;;;;;;;;;;;;10.86;58.45;99220.66;4335460;33;20005;-84
2023/01/07 00:11:09;;;;;;;;;;;;;;;10.94;58.25;99221.13;4335454;33;19975;-84
2023/01/07 00:13:35;;;;;;;;;;;;;;;11.12;57.64;99221.16;4334354;33;19975;-84
2023/01/07 00:16:07;;;;;;;;;;;;;;;11.21;57.24;99224.19;4334240;33;19995;-84
2023/01/07 00:18:33;;;;;;;;;;;;;;;11.31;56.94;99214.03;4334290;33;20003;-84
2023/01/07 00:20:59;;;;;;;;;;;;;;;11.33;56.84;99222.72;4334119;33;20051;-84
2023/01/07 00:23:24;;;;;;;;;;;;;;;11.40;56.70;99225.91;4335348;33;19983;-84
2023/01/07 00:25:50;;;;;;;;;;;;;;;11.25;57.25;99231.97;4335274;33;19990;-84
2023/01/07 00:28:15;;;;;;;;;;;;;;;11.38;57.03;99223.34;4335324;33;20071;-84
2023/01/07 00:30:40;;;;;;;;;;;;;;;11.34;57.32;99226.22;4335264;33;20272;-84
2023/01/07 00:33:06;;;;;;;;;;;;;;;11.29;57.62;99233.50;4335220;33;19981;-84
2023/01/07 00:35:31;;;;;;;;;;;;;;;11.05;58.84;99232.94;4335034;33;20002;-84
2023/01/07 00:37:57;;;;;;;;;;;;;;;11.34;58.04;99226.22;4321865;33;20026;-84
2023/01/07 00:40:22;;;;;;;;;;;;;;;11.50;57.28;99231.56;4335317;33;19970;-84
2023/01/07 00:42:53;;;;;;;;;;;;;;;11.55;56.92;99227.75;4335122;33;19991;-84
2023/01/07 00:45:19;;;;;;;;;;;;;;;11.62;56.56;99230.94;4335279;33;20002;-84
2023/01/07 00:47:44;;;;;;;;;;;;;;;11.39;57.17;99232.94;4334030;33;20325;-84
2023/01/07 00:50:09;;;;;;;;;;;;;;;11.41;57.07;99235.50;4334998;33;19983;-84
2023/01/07 00:52:35;;;;;;;;;;;;;;;11.52;56.82;99233.19;4335144;33;20011;-84
2023/01/07 00:55:00;;;;;;;;;;;;;;;11.44;57.34;99239.81;4333971;33;19993;-84
2023/01/07 00:57:25;;;;;;;;;;;;;;;11.11;58.05;99244.03;4321636;33;19983;-84
2023/01/07 00:59:50;;;;;;;;;;;;;;;11.20;58.18;99240.97;4334836;33;19975;-84
2023/01/07 01:02:16;;;;;;;;;;;;;;;11.40;57.66;99234.66;4334944;33;19987;-84
2023/01/07 01:04:41;;;;;;;;;;;;;;;10.96;58.87;99237.72;4335137;33;20308;-84
2023/01/07 01:07:06;;;;;;;;;;;;;;;11.25;58.18;99247.78;4335039;33;19987;-84
2023/01/07 01:09:31;;;;;;;;;;;;;;;11.11;58.65;99248.47;4334947;33;19967;-84
2023/01/07 01:11:56;;;;;;;;;;;;;;;11.13;58.74;99250.09;4334732;33;19993;-84
2023/01/07 01:14:22;;;;;;;;;;;;;;;11.08;58.88;99249.47;4335032;33;19979;-84
2023/01/07 01:16:47;;;;;;;;;;;;;;;11.05;59.18;99249.62;4334866;33;20027;-84
2023/01/07 01:19:12;;;;;;;;;;;;;;;10.80;60.13;99253.44;4333758;33;19998;-84
2023/01/07 01:21:39;;;;;;;;;;;;;;;10.92;59.80;99241.44;4334860;33;20316;-84
2023/01/07 01:24:04;;;;;;;;;;;;;;;11.05;59.53;99246.13;4334711;33;20034;-84
2023/01/07 01:26:30;;;;;;;;;;;;;;;11.35;58.49;99243.75;4319017;33;83296;-84
2023/01/07 01:28:55;;;;;;;;;;;;;;;11.41;58.35;99240.78;4333877;33;20011;-84
2023/01/07 01:31:20;;;;;;;;;;;;;;;11.17;59.20;99248.16;4321484;33;20304;-84
2023/01/07 01:33:45;;;;;;;;;;;;;;;10.86;60.27;99246.19;4335062;33;19983;-84
2023/01/07 01:36:12;;;;;;;;;;;;;;;11.08;59.54;99236.28;4334896;33;19997;-84
2023/01/07 01:38:37;;;;;;;;;;;;;;;11.20;59.00;99238.31;4321145;33;19991;-84
2023/01/07 01:41:02;;;;;;;;;;;;;;;10.91;59.98;99238.87;4334742;33;20241;-84
2023/01/07 01:43:30;;;;;;;;;;;;;;;11.23;59.22;99236.47;4334517;33;20035;-84
2023/01/07 01:45:55;;;;;;;;;;;;;;;11.28;59.20;99237.06;4334684;33;19983;-84
2023/01/07 01:48:20;;;;;;;;;;;;;;;10.88;60.62;99241.69;4334516;33;20025;-84
2023/01/07 01:50:45;;;;;;;;;;;;;;;10.91;60.65;99238.87;4333404;33;20029;-84
2023/01/07 01:53:20;;;;;;;;;;;;;;;11.03;60.23;99233.03;4334506;33;20308;-84
2023/01/07 01:55:49;;;;;;;;;;;;;;;11.25;59.44;99229.31;4334563;33;20001;-84
2023/01/07 01:58:15;;;;;;;;;;;;;;;11.41;59.05;99228.47;4334420;33;19979;-84
2023/01/07 02:00:41;;;;;;;;;;;;;;;11.09;60.17;99231.87;4333298;33;19990;-84
2023/01/07 02:03:07;;;;;;;;;;;;;;;10.83;61.17;99228.72;4334918;33;19984;-84
2023/01/07 02:05:33;;;;;;;;;;;;;;;10.52;62.16;99227.53;4335146;33;19987;-84
2023/01/07 02:07:58;;;;;;;;;;;;;;;10.30;62.92;99230.34;4335117;33;20030;-84
2023/01/07 02:10:23;;;;;;;;;;;;;;;10.85;61.26;99218.09;4336242;33;20064;-84
2023/01/07 02:12:54;;;;;;;;;;;;;;;10.62;62.03;99213.03;4336097;33;20026;-84
2023/01/07 02:15:26;;;;;;;;;;;;;;;10.91;61.14;99210.72;4336171;33;20028;-84
2023/01/07 02:17:57;;;;;;;;;;;;;;;11.01;60.81;99204.09;4335140;33;19971;-84
2023/01/07 02:20:35;;;;;;;;;;;;;;;11.08;60.62;99209.06;4335057;33;19976;-84
2023/01/07 02:23:03;;;;;;;;;;;;;;;11.14;60.38;99211.38;4336025;33;19975;-84
2023/01/07 02:25:28;;;;;;;;;;;;;;;10.66;61.93;99191.78;4336160;33;20010;-84
2023/01/07 02:27:56;;;;;;;;;;;;;;;10.76;61.88;99198.34;4336095;33;19975;-84
2023/01/07 02:30:24;;;;;;;;;;;;;;;10.99;61.00;99195.41;4322524;33;19974;-84
2023/01/07 02:32:52;;;;;;;;;;;;;;;10.67;61.92;99202.25;4336147;33;20007;-84
2023/01/07 02:35:41;;;;;;;;;;;;;;;10.52;62.55;99198.56;4335957;33;20038;-84
2023/01/07 02:38:15;;;;;;;;;;;;;;;10.81;62.01;99197.16;4335027;33;20071;-84
2023/01/07 02:40:52;;;;;;;;;;;;;;;10.81;61.89;99197.16;4322635;33;20325;-84
2023/01/07 02:43:29;;;;;;;;;;;;;;;10.81;61.98;99197.16;4334762;33;20046;-84
2023/01/07 02:45:57;;;;;;;;;;;;;;;11.17;60.50;99193.63;4336193;33;20002;-84
2023/01/07 02:48:22;;;;;;;;;;;;;;;10.97;60.90;99199.03;4322486;33;20487;-84
2023/01/07 02:50:47;;;;;;;;;;;;;;;11.15;60.71;99197.28;4334741;33;19974;-84
2023/01/07 02:53:14;;;;;;;;;;;;;;;11.17;60.47;99198.06;4335883;33;20019;-84
2023/01/07 02:55:39;;;;;;;;;;;;;;;11.09;60.84;99197.59;4334832;33;20058;-84
2023/01/07 02:58:10;;;;;;;;;;;;;;;10.82;61.50;99193.59;4335867;33;19976;-84
2023/01/07 03:01:00;;;;;;;;;;;;;;;11.04;60.89;99200.44;4335851;33;20003;-84
2023/01/07 03:03:41;;;;;;;;;;;;;;;11.15;60.42;99195.50;4334803;33;19987;-84
2023/01/07 03:06:25;;;;;;;;;;;;;;;11.06;60.75;99198.59;4334799;33;20004;-84
2023/01/07 03:09:03;;;;;;;;;;;;;;;10.98;61.04;99192.84;4335729;33;19985;-84
2023/01/07 03:11:33;;;;;;;;;;;;;;;10.78;61.60;99196.47;4334753;33;19998;-84
2023/01/07 03:14:10;;;;;;;;;;;;;;;11.10;60.50;99189.59;4333654;33;20650;-84
2023/01/07 03:16:40;;;;;;;;;;;;;;;10.96;60.99;99197.34;4335854;33;20010;-84
2023/01/07 03:19:24;;;;;;;;;;;;;;;11.02;60.76;99194.41;4334502;33;20037;-84
2023/01/07 03:21:50;;;;;;;;;;;;;;;10.91;61.27;99187.00;4334642;33;19975;-84
2023/01/07 03:24:15;;;;;;;;;;;;;;;10.88;61.53;99189.81;4322032;33;20071;-84
2023/01/07 03:26:41;;;;;;;;;;;;;;;10.97;61.05;99189.38;4334541;33;19987;-84
2023/01/07 03:29:07;;;;;;;;;;;;;;;10.95;61.07;99180.69;4334485;33;19989;-84
2023/01/07 03:31:32;;;;;;;;;;;;;;;10.82;61.68;99182.22;4335679;33;19989;-84
2023/01/07 03:33:59;;;;;;;;;;;;;;;10.32;63.05;99186.34;4334532;33;20321;-84
2023/01/07 03:36:26;;;;;;;;;;;;;;;10.84;61.75;99182.16;4334388;33;20005;-84
2023/01/07 03:38:52;;;;;;;;;;;;;;;10.92;61.40;99187.88;4334430;33;20301;-84
2023/01/07 03:44:00;;;;;;;;;;;;;;;10.84;61.54;99179.50;4334629;33;19986;-84
2023/01/07 03:46:26;;;;;;;;;;;;;;;10.71;61.86;99182.72;4335503;33;19991;-84
2023/01/07 03:48:51;;;;;;;;;;;;;;;10.59;62.23;99183.34;4334422;33;19990;-84
2023/01/07 03:51:17;;;;;;;;;;;;;;;10.73;61.94;99182.66;4335513;33;19971;-84
2023/01/07 03:53:42;;;;;;;;;;;;;;;10.59;62.55;99178.91;4334344;33;19983;-84
2023/01/07 03:56:07;;;;;;;;;;;;;;;10.78;62.04;99188.56;4335578;33;19980;-84
2023/01/07 03:58:32;;;;;;;;;;;;;;;10.72;62.29;99188.84;4335546;33;19967;-84
2023/01/07 04:00:58;;;;;;;;;;;;;;;10.69;61.92;99186.37;4335569;33;20309;-84
2023/01/07 04:03:23;;;;;;;;;;;;;;;10.94;61.28;99186.03;4335433;33;20003;-84
2023/01/07 04:05:48;;;;;;;;;;;;;;;10.92;61.03;99185.25;4335396;33;20023;-84
2023/01/07 04:08:13;;;;;;;;;;;;;;;10.89;61.05;99188.03;4335474;33;20009;-84
2023/01/07 04:10:38;;;;;;;;;;;;;;;10.77;61.76;99182.44;4335416;33;20316;-84
2023/01/07 04:13:04;;;;;;;;;;;;;;;10.68;62.01;99180.25;4335328;33;20257;-84
2023/01/07 04:15:29;;;;;;;;;;;;;;;10.78;61.87;99178.87;4334021;33;19983;-84
2023/01/07 04:17:54;;;;;;;;;;;;;;;10.21;64.04;99181.56;4321968;33;19999;-84
2023/01/07 04:20:19;;;;;;;;;;;;;;;10.41;63.24;99180.66;4335275;33;20218;-84
2023/01/07 04:22:45;;;;;;;;;;;;;;;10.16;64.47;99183.56;4335280;33;19972;-84
2023/01/07 04:25:10;;;;;;;;;;;;;;;10.21;64.24;99178.91;4334969;33;19983;-84
2023/01/07 04:27:35;;;;;;;;;;;;;;;10.41;63.53;99178.03;4335279;33;20042;-84
2023/01/07 04:30:01;;;;;;;;;;;;;;;10.25;64.23;99182.25;4335352;33;20015;-84
2023/01/07 04:32:26;;;;;;;;;;;;;;;10.26;64.00;99176.09;4335234;33;19990;-84
2023/01/07 04:34:51;;;;;;;;;;;;;;;10.55;63.09;99181.78;4335269;33;19994;-84
2023/01/07 04:37:16;;;;;;;;;;;;;;;10.52;63.24;99169.59;4334961;33;19979;-84
2023/01/07 04:39:42;;;;;;;;;;;;;;;10.79;62.09;99182.34;4335234;33;20264;-84
2023/01/07 04:42:07;;;;;;;;;;;;;;;10.87;61.69;99179.34;4335171;33;19979;-84
2023/01/07 04:44:32;;;;;;;;;;;;;;;10.82;61.76;99184.84;4335174;33;19975;-84
2023/01/07 04:46:57;;;;;;;;;;;;;;;10.59;62.25;99184.19;4335252;33;20332;-84
2023/01/07 04:49:22;;;;;;;;;;;;;;;10.79;61.87;99185.00;4335155;33;19967;-84
2023/01/07 04:51:48;;;;;;;;;;;;;;;10.58;62.67;99193.00;4335185;33;20312;-84
2023/01/07 04:54:13;;;;;;;;;;;;;;;10.58;62.37;99179.81;4321777;33;20294;-84
2023/01/07 04:56:38;;;;;;;;;;;;;;;10.78;61.91;99185.94;4335124;33;19963;-84
2023/01/07 04:59:03;;;;;;;;;;;;;;;10.56;62.73;99186.09;4335046;33;19989;-84
2023/01/07 05:01:31;;;;;;;;;;;;;;;10.57;62.39;99187.84;4321422;33;19996;-84
2023/01/07 05:03:56;;;;;;;;;;;;;;;10.77;61.87;99187.69;4333804;33;19991;-84
2023/01/07 05:06:21;;;;;;;;;;;;;;;10.70;62.12;99188.06;4335117;33;19985;-84
2023/01/07 05:08:47;;;;;;;;;;;;;;;10.79;61.59;99188.47;4334965;33;19967;-84
2023/01/07 05:11:14;;;;;;;;;;;;;;;10.77;61.76;99195.59;4334886;33;19983;-84
2023/01/07 05:13:39;;;;;;;;;;;;;;;10.80;61.48;99192.84;4334986;33;19997;-84
2023/01/07 05:16:04;;;;;;;;;;;;;;;10.70;62.08;99193.34;4334910;33;20305;-84
2023/01/07 05:18:30;;;;;;;;;;;;;;;9.99;64.38;99194.88;4321507;33;19975;-84
2023/01/07 05:20:55;;;;;;;;;;;;;;;10.58;62.76;99189.53;4333760;33;20029;-83
2023/01/07 05:23:20;;;;;;;;;;;;;;;10.74;nan;99192.25;4334742;33;19975;-84
2023/01/07 05:25:45;;;;;;;;;;;;;;;10.84;61.38;99203.25;4334816;33;19983;-84
2023/01/07 05:28:11;;;;;;;;;;;;;;;10.87;61.05;99198.63;4321367;33;19982;-84
2023/01/07 05:30:37;;;;;;;;;;;;;;;10.83;61.01;99199.72;4334649;33;20226;-84
2023/01/07 05:33:05;;;;;;;;;;;;;;;10.66;61.83;99204.97;4334760;33;20089;-84
2023/01/07 05:35:31;;;;;;;;;;;;;;;10.80;61.18;99202.53;4334024;33;19976;-84
2023/01/07 05:37:56;;;;;;;;;;;;;;;10.66;61.64;99203.16;4333169;33;19975;-84
2023/01/07 05:40:21;;;;;;;;;;;;;;;10.81;61.07;99196.31;4334727;33;19975;-84
2023/01/07 05:42:47;;;;;;;;;;;;;;;10.84;60.88;99197.97;4333389;33;20367;-84
2023/01/07 05:45:12;;;;;;;;;;;;;;;10.60;61.53;99198.19;4334541;33;20284;-84
2023/01/07 05:47:37;;;;;;;;;;;;;;;10.74;60.89;99193.13;4334658;33;19989;-84
2023/01/07 05:50:02;;;;;;;;;;;;;;;10.78;60.47;99197.31;4334585;33;19971;-84
2023/01/07 05:52:28;;;;;;;;;;;;;;;10.52;61.54;99197.72;4334482;33;19975;-84
2023/01/07 05:54:53;;;;;;;;;;;;;;;10.57;61.48;99198.38;4321066;33;20010;-84
2023/01/07 05:57:18;;;;;;;;;;;;;;;10.40;62.47;99200.00;4333374;33;19971;-84
2023/01/07 05:59:43;;;;;;;;;;;;;;;10.66;61.74;99197.91;4334496;33;20264;-84
2023/01/07 06:02:09;;;;;;;;;;;;;;;10.72;61.54;99195.00;4320927;33;19991;-84
2023/01/07 06:04:34;;;;;;;;;;;;;;;10.71;61.55;99195.06;4334325;33;19967;-84
2023/01/07 06:06:59;;;;;;;;;;;;;;;10.70;61.65;99195.97;4334243;33;19990;-84
2023/01/07 06:09:25;;;;;;;;;;;;;;;10.64;61.96;99199.75;4333178;33;20230;-84
2023/01/07 06:11:50;;;;;;;;;;;;;;;10.46;62.76;99193.59;4334314;33;19979;-84
2023/01/07 06:14:15;;;;;;;;;;;;;;;10.61;62.26;99200.78;4334173;33;20003;-84
2023/01/07 06:16:40;;;;;;;;;;;;;;;10.40;62.92;99205.28;4333021;33;20252;-84
2023/01/07 06:19:06;;;;;;;;;;;;;;;10.53;62.82;99200.28;4334225;33;20007;-84
2023/01/07 06:21:31;;;;;;;;;;;;;;;10.54;62.69;99209.03;4333917;33;19983;-84
2023/01/07 06:23:56;;;;;;;;;;;;;;;10.35;63.51;99204.66;4334037;33;19982;-84
2023/01/07 06:26:22;;;;;;;;;;;;;;;10.55;62.92;99198.44;4332900;33;19971;-84
2023/01/07 06:28:47;;;;;;;;;;;;;;;10.62;62.57;99194.59;4332812;33;19979;-84
2023/01/07 06:31:12;;;;;;;;;;;;;;;10.75;62.16;99191.34;4334078;33;20005;-84
2023/01/07 06:33:39;;;;;;;;;;;;;;;10.73;62.18;99191.41;4333904;33;20256;-84
2023/01/07 06:36:04;;;;;;;;;;;;;;;10.80;61.82;99184.94;4333643;33;20041;-83
2023/01/07 06:38:30;;;;;;;;;;;;;;;10.81;61.59;99183.97;4333989;33;19979;-84
2023/01/07 06:40:57;;;;;;;;;;;;;;;10.88;61.51;99188.97;4333872;33;20006;-84
2023/01/07 06:43:22;;;;;;;;;;;;;;;10.88;61.54;99191.59;4333750;33;19994;-84
2023/01/07 06:45:48;;;;;;;;;;;;;;;10.79;62.01;99191.09;4333742;33;19983;-84
2023/01/07 06:48:13;;;;;;;;;;;;;;;10.85;62.05;99197.03;4335049;33;19975;-84
2023/01/07 06:50:38;;;;;;;;;;;;;;;10.88;62.07;99191.59;4335997;33;20369;-84
2023/01/07 06:53:03;;;;;;;;;;;;;;;10.97;61.79;99191.13;4335917;33;19967;-84
2023/01/07 06:55:29;;;;;;;;;;;;;;;11.02;61.64;99189.97;4335868;33;19995;-84
2023/01/07 06:57:54;;;;;;;;;;;;;;;11.06;61.59;99195.09;4335848;33;20002;-84
2023/01/07 07:00:20;;;;;;;;;;;;;;;11.12;61.48;99200.06;4335895;33;20029;-84
2023/01/07 07:02:45;;;;;;;;;;;;;;;11.15;61.46;99206.03;4334637;33;20006;-84
2023/01/07 07:05:10;;;;;;;;;;;;;;;11.19;61.38;99191.78;4335857;33;19984;-83
2023/01/07 07:07:36;;;;;;;;;;;;;;;11.24;61.38;99199.44;4335774;33;20003;-84
2023/01/07 07:10:06;;;;;;;;;;;;;;;11.27;61.49;99203.72;4335867;33;20238;-84
2023/01/07 07:12:31;;;;;;;;;;;;;;;11.36;61.20;99212.03;4335860;33;19987;-84
2023/01/07 07:14:56;;;;;;;;;;;;;;;11.40;61.28;99212.72;4335702;33;19997;-84
2023/01/07 07:17:21;;;;;;;;;;;;;;;11.41;61.09;99219.69;4335740;33;19971;-84
2023/01/07 07:19:47;;;;;;;;;;;;;;;11.50;60.73;99208.66;4322335;33;20006;-84
2023/01/07 07:22:12;;;;;;;;;;;;;;;11.53;60.59;99207.66;4335821;33;19987;-84
2023/01/07 07:24:37;;;;;;;;;;;;;;;11.55;60.61;99214.56;4335587;33;20288;-84
2023/01/07 07:27:02;;;;;;;;;;;;;;;11.60;60.44;99209.88;4335453;33;20104;-84
2023/01/07 07:29:27;;;;;;;;;;;;;;;11.70;59.98;99215.53;4335805;33;19975;-84
2023/01/07 07:31:53;;;;;;;;;;;;;;;11.75;60.03;99215.31;4335309;33;19967;-84
2023/01/07 07:34:18;;;;;;;;;;;;;;;11.78;59.95;99216.00;4335681;33;19968;-84
2023/01/07 07:36:43;;;;;;;;;;;;;;;11.86;59.76;99226.16;4321973;33;19995;-83
2023/01/07 07:39:09;;;;;;;;;;;;;;;11.86;59.72;99227.94;4335626;33;19987;-83
2023/01/07 07:41:35;;;;;;;;;;;;;;;11.98;59.19;99217.63;4334404;33;20034;-83
2023/01/07 07:44:00;;;;;;;;;;;;;;;12.02;58.95;99220.09;4335535;33;20326;-83
2023/01/07 07:46:25;;;;;;;;;;;;;;;11.97;58.90;99221.16;4335494;33;20077;-83
2023/01/07 07:48:50;;;;;;;;;;;;;;;12.02;58.19;99220.09;4322181;33;20029;-83
2023/01/07 07:51:16;;;;;;;;;;;;;;;11.87;58.46;99225.22;4335505;33;20051;-83
2023/01/07 07:53:41;;;;;;;;;;;;;;;11.05;60.89;99233.81;4334313;33;19987;-83
2023/01/07 07:56:07;;;;;;;;;;;;;;;11.42;60.56;99239.87;4321768;33;20031;-83
2023/01/07 07:58:32;;;;;;;;;;;;;;;11.27;60.59;99230.94;4335085;33;20031;-83
2023/01/07 08:00:57;;;;;;;;;;;;;;;11.54;60.38;99227.84;4335230;33;19995;-83
2023/01/07 08:03:22;;;;;;;;;;;;;;;11.83;59.57;99236.03;4335417;33;20300;-83
2023/01/07 08:05:48;;;;;;;;;;;;;;;11.99;58.66;99232.53;4335398;33;20316;-83
2023/01/07 08:08:13;;;;;;;;;;;;;;;12.24;57.67;99220.62;4321979;33;20265;-83
2023/01/07 08:10:38;;;;;;;;;;;;;;;12.26;57.67;99220.56;4334232;33;19974;-82
2023/01/07 08:13:04;;;;;;;;;;;;;;;12.37;57.34;99226.94;4335446;33;20330;-83
2023/01/07 08:15:29;;;;;;;;;;;;;;;12.37;57.66;99226.09;4335377;33;19979;-83
2023/01/07 08:18:07;;;;;;;;;;;;;;;12.50;57.49;99218.38;4335462;33;19991;-83
2023/01/07 08:20:33;;;;;;;;;;;;;;;12.63;57.25;99215.87;4335373;33;19944;-83
2023/01/07 08:22:59;;;;;;;;;;;;;;;12.56;57.03;99216.22;4335333;33;20319;-83
2023/01/07 08:25:24;;;;;;;;;;;;;;;12.66;56.63;99219.19;4334235;33;19983;-83
2023/01/07 08:27:50;;;;;;;;;;;;;;;12.81;56.29;99214.84;4334102;33;19987;-83
2023/01/07 08:30:15;;;;;;;;;;;;;;;12.93;55.97;99219.41;4334055;33;19980;-83
2023/01/07 08:32:41;;;;;;;;;;;;;;;13.05;55.62;99211.72;4335314;33;19985;-83
2023/01/07 08:35:06;;;;;;;;;;;;;;;13.01;55.63;99212.84;4335331;33;20256;-83
2023/01/07 08:37:31;;;;;;;;;;;;;;;13.18;55.31;99215.34;4335174;33;20046;-83
2023/01/07 08:39:57;;;;;;;;;;;;;;;13.14;55.43;99208.56;4335071;33;19979;-83
2023/01/07 08:42:22;;;;;;;;;;;;;;;13.29;55.02;99201.47;4335181;33;19983;-83
2023/01/07 08:44:47;;;;;;;;;;;;;;;13.06;55.17;99211.62;4335157;33;19975;-83
2023/01/07 08:47:13;;;;;;;;;;;;;;;12.93;55.71;99208.00;4335306;33;19999;-84
2023/01/07 08:49:38;;;;;;;;;;;;;;;13.20;55.56;99207.34;4335158;33;20245;-83
2023/01/07 08:52:03;;;;;;;;;;;;;;;12.66;56.86;99213.91;4335173;33;20302;-83
2023/01/07 08:54:28;;;;;;;;;;;;;;;13.19;55.58;99198.53;4335054;33;20217;-81
2023/01/07 08:56:54;;;;;;;;;;;;;;;13.45;54.67;99191.75;4335085;33;19981;-81
2023/01/07 08:59:19;;;;;;;;;;;;;;;12.87;56.40;99189.84;4334978;33;19971;-81
2023/01/07 09:01:44;;;;;;;;;;;;;;;13.04;55.92;99197.66;4335107;33;20015;-81
2023/01/07 09:04:09;;;;;;;;;;;;;;;13.23;55.09;99192.16;4334967;33;20031;-81
2023/01/07 09:06:35;;;;;;;;;;;;;;;13.20;55.06;99192.31;4333972;33;19983;-81
2023/01/07 09:09:00;;;;;;;;;;;;;;;13.47;54.05;99189.00;4334976;33;20010;-81
2023/01/07 09:11:25;;;;;;;;;;;;;;;13.30;54.51;99190.00;4334961;33;20075;-81
2023/01/07 09:13:51;;;;;;;;;;;;;;;13.30;54.74;99197.94;4335001;33;20007;-81
2023/01/07 09:16:16;;;;;;;;;;;;;;;13.50;54.11;99188.81;4334927;33;20011;-81
2023/01/07 09:18:41;;;;;;;;;;;;;;;12.85;55.58;99199.66;4334724;33;19975;-81
2023/01/07 09:21:06;;;;;;;;;;;;;;;13.32;54.37;99209.28;4334837;33;19967;-81
2023/01/07 09:23:32;;;;;;;;;;;;;;;13.40;54.13;99201.75;4334865;33;19975;-81
2023/01/07 09:25:57;;;;;;;;;;;;;;;13.65;53.73;99195.81;4334884;33;20011;-81
2023/01/07 09:28:22;;;;;;;;;;;;;;;13.75;53.53;99204.94;4334922;33;19967;-81
2023/01/07 09:30:47;;;;;;;;;;;;;;;13.80;53.26;99190.56;4333666;33;19980;-81
2023/01/07 09:33:13;;;;;;;;;;;;;;;13.91;52.84;99190.75;4334760;33;20018;-81
2023/01/07 09:35:38;;;;;;;;;;;;;;;13.81;52.91;99195.75;4334595;33;19979;-81
2023/01/07 09:38:04;;;;;;;;;;;;;;;13.70;53.03;99191.09;4334537;33;19967;-81
2023/01/07 09:40:36;;;;;;;;;;;;;;;13.60;53.19;99186.44;4333714;33;19994;-81
2023/01/07 09:43:01;;;;;;;;;;;;;;;13.59;53.25;99195.34;4333495;33;19979;-81
2023/01/07 09:45:36;;;;;;;;;;;;;;;13.71;52.92;99184.87;4334619;33;20053;-81
2023/01/07 09:48:02;;;;;;;;;;;;;;;13.28;54.08;99183.91;4333575;33;20025;-81
2023/01/07 09:50:42;;;;;;;;;;;;;;;13.46;53.23;99182.88;4333523;33;20292;-81
2023/01/07 09:53:11;;;;;;;;;;;;;;;13.64;52.73;99172.09;4333420;33;20328;-81
2023/01/07 09:55:38;;;;;;;;;;;;;;;13.55;52.82;99177.00;4333289;33;20015;-81
2023/01/07 09:58:03;;;;;;;;;;;;;;;13.64;52.32;99182.69;4333441;33;19985;-81
2023/01/07 10:00:28;;;;;;;;;;;;;;;13.64;52.20;99174.75;4320876;33;19979;-81
2023/01/07 10:02:54;;;;;;;;;;;;;;;13.60;52.32;99165.28;4333212;33;19987;-81
2023/01/07 10:05:37;;;;;;;;;;;;;;;13.16;53.35;99169.63;4334312;33;19983;-81
2023/01/07 10:08:05;;;;;;;;;;;;;;;13.30;52.95;99171.47;4334312;33;19989;-81
2023/01/07 10:11:00;;;;;;;;;;;;;;;13.31;52.77;99165.25;4334242;33;19967;-81
2023/01/07 10:13:40;;;;;;;;;;;;;;;13.39;52.77;99170.09;4330691;33;19994;-81
2023/01/07 10:16:18;;;;;;;;;;;;;;;13.17;53.07;99164.25;4334272;33;20005;-81
2023/01/07 10:18:55;;;;;;;;;;;;;;;13.02;53.61;99166.94;4334146;33;20457;-81
2023/01/07 10:21:28;;;;;;;;;;;;;;;13.18;53.26;99162.44;4334172;33;19982;-81
2023/01/07 10:24:01;;;;;;;;;;;;;;;13.31;53.11;99157.31;4334515;33;19997;-81
2023/01/07 10:26:32;;;;;;;;;;;;;;;13.20;53.38;99159.72;4335046;33;19999;-81
2023/01/07 10:29:06;;;;;;;;;;;;;;;13.33;53.10;99152.78;4334918;33;20041;-81
2023/01/07 10:31:31;;;;;;;;;;;;;;;13.30;53.20;99155.59;4336101;33;20050;-81
2023/01/07 10:33:57;;;;;;;;;;;;;;;13.31;53.57;99149.38;4334902;33;20317;-81
2023/01/07 10:36:22;;;;;;;;;;;;;;;12.76;55.31;99151.62;4334704;33;19987;-81
2023/01/07 10:38:51;;;;;;;;;;;;;;;13.19;54.35;99148.25;4336065;33;20241;-81
2023/01/07 10:41:21;;;;;;;;;;;;;;;13.32;54.28;99151.06;4336070;33;19968;-81
2023/01/07 10:43:50;;;;;;;;;;;;;;;13.20;54.25;99144.69;4334975;33;20010;-81
2023/01/07 10:46:15;;;;;;;;;;;;;;;13.18;54.50;99143.94;4322611;33;20053;-81
2023/01/07 10:48:52;;;;;;;;;;;;;;;13.23;54.42;99147.16;4335792;33;20026;-81
2023/01/07 10:51:35;;;;;;;;;;;;;;;13.40;53.80;99140.88;4335165;33;20022;-81
2023/01/07 10:54:16;;;;;;;;;;;;;;;13.37;53.79;99139.28;4334624;33;20046;-81
2023/01/07 10:56:42;;;;;;;;;;;;;;;13.39;53.86;99141.00;4335943;33;19983;-80
2023/01/07 10:59:13;;;;;;;;;;;;;;;13.07;54.47;99133.97;4334780;33;20319;-81
2023/01/07 11:01:38;;;;;;;;;;;;;;;12.98;54.58;99132.75;4334551;33;19971;-81
2023/01/07 11:04:09;;;;;;;;;;;;;;;13.30;53.85;99137.09;4335762;33;19986;-79
2023/01/07 11:06:35;;;;;;;;;;;;;;;12.97;54.72;99131.03;4334873;33;20051;-81
2023/01/07 11:09:02;;;;;;;;;;;;;;;13.22;54.05;99124.28;4335825;33;19989;-79
2023/01/07 11:11:27;;;;;;;;;;;;;;;13.39;53.81;99117.16;4329892;33;20360;-80
2023/01/07 11:14:00;;;;;;;;;;;;;;;13.41;53.74;99120.56;4329045;33;19976;-79
2023/01/07 11:16:26;;;;;;;;;;;;;;;12.83;55.52;99120.44;4336390;33;19983;-79
2023/01/07 11:18:59;;;;;;;;;;;;;;;13.03;54.60;99115.75;4338197;33;19988;-79
2023/01/07 11:21:38;;;;;;;;;;;;;;;12.81;55.37;99110.88;4338876;33;19979;-80
2023/01/07 11:24:22;;;;;;;;;;;;;;;12.28;57.33;99116.50;4334080;33;19982;-80
2023/01/07 11:26:48;;;;;;;;;;;;;;;13.14;54.87;99105.38;4335746;33;19991;-80
2023/01/07 11:29:13;;;;;;;;;;;;;;;12.96;54.80;99104.66;4333980;33;19967;-79
2023/01/07 11:31:43;;;;;;;;;;;;;;;13.31;54.02;99096.47;4335266;33;20012;-80
2023/01/07 11:34:27;;;;;;;;;;;;;;;13.12;54.42;99094.87;4333172;33;19999;-81
2023/01/07 11:36:52;;;;;;;;;;;;;;;13.43;53.72;99092.22;4335202;33;19995;-79
2023/01/07 11:39:22;;;;;;;;;;;;;;;13.45;53.51;99087.69;4334272;33;20289;-80
2023/01/07 11:41:52;;;;;;;;;;;;;;;13.52;53.28;99088.97;4333971;33;20082;-80
2023/01/07 11:44:17;;;;;;;;;;;;;;;13.42;53.60;99086.06;4333948;33;20324;-79
2023/01/07 11:46:42;;;;;;;;;;;;;;;13.62;52.96;99081.31;4334382;33;20006;-79
2023/01/07 11:49:08;;;;;;;;;;;;;;;13.71;52.66;99078.97;4333910;33;20031;-80
2023/01/07 11:51:39;;;;;;;;;;;;;;;13.76;52.44;99074.22;4333805;33;19979;-79
2023/01/07 11:54:04;;;;;;;;;;;;;;;13.79;52.39;99073.19;4334231;33;19988;-79
2023/01/07 11:56:31;;;;;;;;;;;;;;;13.77;52.41;99078.59;4335397;33;19987;-81
2023/01/07 11:59:14;;;;;;;;;;;;;;;13.51;52.96;99072.25;4334250;33;19994;-81
2023/01/07 12:01:44;;;;;;;;;;;;;;;13.71;52.48;99072.81;4335438;33;19986;-81
2023/01/07 12:04:18;;;;;;;;;;;;;;;13.26;53.78;99064.94;4334245;33;20620;-81
2023/01/07 12:06:43;;;;;;;;;;;;;;;13.64;52.86;99064.41;4335595;33;20376;-80
2023/01/07 12:09:23;;;;;;;;;;;;;;;13.77;52.65;99054.75;4334187;33;19995;-81
2023/01/07 12:11:48;;;;;;;;;;;;;;;13.86;52.39;99055.09;4335302;33;19995;-81
2023/01/07 12:14:27;;;;;;;;;;;;;;;13.88;52.09;99048.75;4334257;33;19991;-80
2023/01/07 12:16:52;;;;;;;;;;;;;;;13.33;53.21;99053.09;4334280;33;20703;-80
2023/01/07 12:19:30;;;;;;;;;;;;;;;13.43;52.90;99047.22;4334170;33;19975;-80
2023/01/07 12:21:55;;;;;;;;;;;;;;;13.74;52.13;99041.69;4335257;33;19989;-80
2023/01/07 12:24:27;;;;;;;;;;;;;;;13.85;51.87;99046.31;4334205;33;20003;-80
2023/01/07 12:27:01;;;;;;;;;;;;;;;13.87;51.79;99032.97;4331402;33;20332;-80
2023/01/07 12:29:36;;;;;;;;;;;;;;;13.90;51.73;99033.63;4335044;33;20032;-81
2023/01/07 12:32:04;;;;;;;;;;;;;;;13.93;51.64;99030.78;4333039;33;20276;-81
2023/01/07 12:34:29;;;;;;;;;;;;;;;13.81;51.39;99034.22;4332398;33;19995;-81
2023/01/07 12:37:00;;;;;;;;;;;;;;;13.88;51.18;99032.87;4332975;33;19974;-81
2023/01/07 12:39:33;;;;;;;;;;;;;;;13.89;51.14;99029.28;4333892;33;20022;-81
2023/01/07 12:42:10;;;;;;;;;;;;;;;14.00;50.96;99033.03;4333072;33;19986;-81
2023/01/07 12:44:37;;;;;;;;;;;;;;;13.64;51.44;99029.16;4334537;33;20598;-82
2023/01/07 12:47:07;;;;;;;;;;;;;;;13.33;52.50;99029.28;4333589;33;19985;-81
2023/01/07 12:49:45;;;;;;;;;;;;;;;13.45;52.43;99030.28;4333394;33;19978;-81
2023/01/07 12:52:12;;;;;;;;;;;;;;;13.69;51.80;99025.25;4333985;33;19983;-81